Aérodrome :
LOGIN :

S'inscrire | Disclaimer

   EN    FR    IT 

 










Légende :    VFR   VFR Marginal   IFR   IFR Intensif   IFR Très Intensif
Visi : 
Plafond : 
>= 8 km
>= 3000ft
5 à 8 km
1000 à 3000 ft
1500m à 5 km
500 à 1000 ft
800 à 1500m
200 à 500 ft
< 800m
< 200 ft
Symboles :   Orages  Brouillard  Fortes neiges  Fortes précipitations  Vent > 20 kt
SIGMETs :   Divers  Orages  Givrage  Turbulence  Onde Orograph.  Cendres Volcan.







- Altitude de l'aérodrome : 776 ft
- Code IATA : RMS


ETAR - Ramstein Air Base

DERNIER METAR :
  • 201756Z AUTO 07005KT 9999 CLR 12/02 A3026 RMK AO2 SLP257 T01200024 10197 20120 55005 CHINO RWY26 $

METARs EXPIRÉS :
  • COR
  • 201656Z AUTO 05010KT 9999 CLR 17/02 A3025 RMK AO2 SLP251 T01720024 CHINO RWY26 $
  • 201556Z AUTO 05012KT 9999 CLR 19/03 A3026 RMK AO2 SLP253 T01890027 CHINO RWY26 $
  • 201458Z AUTO 06011KT 9999 CLR 19/03 A3028 RMK AO2 WSHFT 53 SLP260 CHINO RWY26 $

TAF TAF ETAR
Valide du 20 à 10h jusqu'au 21 à 16h UTC


201036Z 2010/2116 08010KT 9999 SKC QNH3030INS
TEMPO 2010/2016 08010G20KT
BECMG 2017/2018 VRB06KT 9999 SKC QNH3025INS TX20/2016Z TN01/2101Z
Pas de NOTAMs connus pour ce terrain.



MET'MAP, la Météo Aéronautique d'un coup d'oeil ! - Copyright ORBIFLY Décembre 2007 - Disclaimer

ORBIFLY MET'MAP TEAM :

Programmation & Développement : Alexandra Zaïnal
Conception & Développement : Baudouin d'Aumeries
Co-Programmation & Développement : Marc-Olivier Méhu
Soutien technique & logistique : Manuel Goepfert

Contact : metmap@orbifly.com




SOURCES & CREDITS :

   NOAA